»·PEaware :: N416JK KTUS-KPSP

N416JK :: KTUS-KPSP

FLIGHT INFORMATION

Flight Status: Arrived
Operator: Privately registered:
United States
More flights under this callsign
Pilot: John K. (4202)
Aircraft: Unknown
(EPIC)
More flights by this aircraft type
Origin: KTUS Tucson Intl
United States
Destination: KPSP Palm Springs Intl
United States
More flights between these airports :: More routes between these airports
Route: +BURRO4 GBN V94 BLH V372 PSP
File this flight plan on PilotEdge
Remarks:
Altitude:
(Current/Filed)
18,000ft
Speed:
(Current/Filed)
310kts
Departed: 16-Sep-20 08:37 AM
Arrived: 16-Sep-20 09:51 AM
Distance/Time
Traveled:
298nm/1:14
Distance/Time
To Go:
Arrived

Flight Plot

Page will automatically refresh every two minutes.

Flight plan parsing failed; only flown route is shown


Map Options




Map Legend


Flown Route
Filed Route
Departure Airport
Arrival Airport
Navaid (VOR, NDB)
Fix

Horizontal Profiles

Position Reports

Time Latitude Longitude Heading Altitude Ground
Speed
16-Sep-20 08:18 32.123316 -110.944348 223 2579ft 0kts
16-Sep-20 08:19 32.123316 -110.944348 223 2579ft 0kts
16-Sep-20 08:24 32.123316 -110.944348 223 2579ft 0kts
16-Sep-20 08:25 32.123316 -110.944348 223 2579ft 0kts
16-Sep-20 08:26 32.123316 -110.944348 223 2579ft 0kts
16-Sep-20 08:27 32.123316 -110.944348 223 2579ft 0kts
16-Sep-20 08:28 32.123316 -110.944349 223 2579ft 0kts
16-Sep-20 08:29 32.123316 -110.944349 223 2579ft 0kts
16-Sep-20 08:30 32.123316 -110.944349 223 2579ft 0kts
16-Sep-20 08:31 32.123316 -110.944349 223 2579ft 0kts
16-Sep-20 08:32 32.123316 -110.944349 223 2579ft 0kts
16-Sep-20 08:33 32.124288 -110.946494 287 2574ft 19kts
16-Sep-20 08:34 32.123867 -110.947077 219 2575ft 0kts
16-Sep-20 08:35 32.123496 -110.947400 214 2575ft 20kts
16-Sep-20 08:36 32.094605 -110.914199 133 3799ft 226kts
16-Sep-20 08:37 32.043985 -110.864973 175 6150ft 244kts
16-Sep-20 08:38 31.993373 -110.911179 225 8382ft 235kts
16-Sep-20 08:39 31.968161 -110.972842 302 10447ft 229kts
16-Sep-20 08:40 32.001434 -111.039026 302 12628ft 238kts
16-Sep-20 08:41 32.034493 -111.106177 303 14786ft 237kts
16-Sep-20 08:42 32.066693 -111.171793 304 16931ft 226kts
16-Sep-20 08:43 32.104191 -111.229838 315 18187ft 241kts
16-Sep-20 08:44 32.152540 -111.292663 315 18186ft 270kts
16-Sep-20 08:45 32.203888 -111.359756 315 18185ft 279kts
16-Sep-20 08:46 32.256152 -111.428184 315 18178ft 283kts
16-Sep-20 08:47 32.304881 -111.502966 307 18083ft 291kts
16-Sep-20 08:49 32.350983 -111.584427 307 18085ft 311kts
16-Sep-20 08:50 32.393952 -111.660765 306 18083ft 309kts
16-Sep-20 08:51 32.441590 -111.745594 306 18514ft 301kts
16-Sep-20 08:52 32.486439 -111.825613 306 19608ft 284kts
16-Sep-20 08:53 32.530129 -111.903699 306 20065ft 292kts
16-Sep-20 08:54 32.575048 -111.984189 306 20089ft 292kts
16-Sep-20 08:55 32.619947 -112.064807 306 20090ft 293kts
16-Sep-20 08:56 32.664864 -112.145631 306 20090ft 293kts
16-Sep-20 08:57 32.708102 -112.223599 306 20089ft 293kts
16-Sep-20 08:58 32.744549 -112.289423 306 20014ft 295kts
16-Sep-20 08:59 32.790103 -112.371920 306 19997ft 295kts
16-Sep-20 09:00 32.835274 -112.453869 306 19997ft 295kts
16-Sep-20 09:01 32.880183 -112.535527 306 19997ft 295kts
16-Sep-20 09:02 32.925206 -112.617572 306 19997ft 295kts
16-Sep-20 09:03 32.968378 -112.700834 302 19998ft 296kts
16-Sep-20 09:03 33.001886 -112.772074 302 19997ft 296kts
16-Sep-20 09:05 33.048625 -112.872484 301 19997ft 297kts
16-Sep-20 09:06 33.088543 -112.958487 301 19996ft 297kts
16-Sep-20 09:06 33.122003 -113.030738 301 20002ft 298kts
16-Sep-20 09:07 33.162684 -113.118777 301 20025ft 297kts
16-Sep-20 09:09 33.209572 -113.220511 301 20028ft 298kts
16-Sep-20 09:09 33.242819 -113.292789 301 20028ft 298kts
16-Sep-20 09:10 33.282730 -113.379825 301 20028ft 299kts
16-Sep-20 09:12 33.329458 -113.481929 301 20028ft 300kts
16-Sep-20 09:12 33.362763 -113.554882 301 20027ft 300kts
16-Sep-20 09:13 33.402703 -113.642569 301 20027ft 300kts
16-Sep-20 09:14 33.442594 -113.730363 301 19982ft 301kts
16-Sep-20 09:15 33.482497 -113.818382 300 20000ft 301kts
16-Sep-20 09:16 33.522381 -113.906613 300 20000ft 301kts
16-Sep-20 09:17 33.543732 -114.003293 280 19999ft 306kts
16-Sep-20 09:18 33.557505 -114.104010 282 19999ft 305kts
16-Sep-20 09:19 33.571219 -114.204386 282 19993ft 306kts
16-Sep-20 09:20 33.585105 -114.306377 281 19638ft 316kts
16-Sep-20 09:21 33.599377 -114.412118 281 19039ft 325kts
16-Sep-20 09:22 33.613797 -114.519587 281 18440ft 329kts
16-Sep-20 09:23 33.628343 -114.628765 281 17763ft 334kts
16-Sep-20 09:24 33.643068 -114.739993 280 16862ft 341kts
16-Sep-20 09:25 33.657974 -114.853333 279 15957ft 345kts
16-Sep-20 09:26 33.672837 -114.967333 278 15058ft 347kts
16-Sep-20 09:27 33.687560 -115.081089 278 14440ft 343kts
16-Sep-20 09:28 33.702106 -115.194291 278 13842ft 341kts
16-Sep-20 09:29 33.716518 -115.307232 277 13157ft 343kts
16-Sep-20 09:30 33.730644 -115.418926 277 12368ft 335kts
16-Sep-20 09:31 33.744447 -115.528766 277 11575ft 328kts
16-Sep-20 09:32 33.757832 -115.636149 277 10784ft 315kts
16-Sep-20 09:33 33.770171 -115.735663 276 10184ft 286kts
16-Sep-20 09:34 33.781526 -115.827802 275 9636ft 284kts
16-Sep-20 09:35 33.785612 -115.918789 273 8231ft 262kts
16-Sep-20 09:36 33.790872 -116.004055 273 7015ft 240kts
16-Sep-20 09:37 33.793903 -116.071873 273 6991ft 168kts
16-Sep-20 09:38 33.797531 -116.118124 278 7027ft 116kts
16-Sep-20 09:39 33.801160 -116.162637 277 6573ft 167kts
16-Sep-20 09:40 33.806263 -116.223452 278 5091ft 183kts
16-Sep-20 09:41 33.809555 -116.283296 253 3572ft 180kts
16-Sep-20 09:42 33.788585 -116.331627 231 2992ft 140kts
16-Sep-20 09:43 33.765136 -116.370605 256 2299ft 141kts
16-Sep-20 09:44 33.764727 -116.387457 294 2292ft 124kts
16-Sep-20 09:45 33.769558 -116.402431 291 2294ft 114kts
16-Sep-20 09:46 33.778759 -116.431415 291 1743ft 154kts
16-Sep-20 09:47 33.788007 -116.461283 290 1359ft 168kts
16-Sep-20 09:48 33.807115 -116.486275 323 843ft 160kts
16-Sep-20 09:49 33.821037 -116.499940 323 526ft 101kts
16-Sep-20 09:50 33.828294 -116.506602 286 481ft 31kts
16-Sep-20 09:51 33.825770 -116.507095 209 481ft 13kts

Navigation Log

Ident Type
Flight plan parsing failed, navigation log unavailable